Tropical Cyclones
[Index]
Main Index Home Page Stock Weather Photos Extreme Storms Discussion Storm News and Storm Chasing Reports Tropical Cyclones / Hurricanes / Typhoons Weather Data and Links Wild Fires / Bushfires Weather Observation Techniques Weather Picture Catalogue Tornado Pictures and Reports Stock Video Footage and DVDs for sale
Season 1961-1962 Tropical Cyclone 196162_08 Track Map
Season 1961-1962 Summaries: [BoM-AU] [JTWC-AU] [JTWC-SIO] [JTWC-SPAC] [JTWC-SH]
<<- Previous TC | BoM 1961-1962 Season | Next TC ->>

click for intensity scale information  Lat/long Grid: Show Hide

 Date Labels: Show Hide

Bureau of Meteorology Tropical Cyclone Data

Name: 196162_08
Number: 350 / 196162_08

02 Mar 1962 01:00 UTC to 06 Mar 1962 01:00 UTC

    date/time    lat    long    hPa   cat  kts
1962-03-02 01   15.0   101.0   1006                     
1962-03-02 04   15.1   100.8   1006                     
1962-03-02 07   15.3   100.5   1006                     
1962-03-02 10   15.4   100.2   1005                     
1962-03-02 16   15.7    99.7   1004                     
1962-03-02 19   15.8    99.5   1003                     
1962-03-02 22   15.9    99.2   1002                     
1962-03-03 01   16.0    99.0   1001                     
1962-03-03 04   16.0    98.9   1001                     
1962-03-03 07   16.0    98.8   1002                     
1962-03-03 10   16.0    98.7   1002                     
1962-03-03 16   16.0    98.4   1003                     
1962-03-03 22   16.0    98.1   1004                     
1962-03-04 01   16.0    98.0   1005                     
1962-03-04 04   16.0    97.8   1005                     
1962-03-04 07   16.0    97.5   1004                     
1962-03-04 10   16.0    97.2   1004                     
1962-03-04 16   16.0    96.0   1003                     
1962-03-04 22   16.0    95.3   1002                     
1962-03-05 01   16.0    95.0   1001                     
1962-03-05 04   16.0    94.8   1002                     
1962-03-05 07   16.0    94.5   1003                     
1962-03-05 10   16.0    94.2   1004                     
1962-03-05 16   16.0    93.7   1005                     
1962-03-05 19   16.0    93.5   1006                     
1962-03-05 22   16.0    93.2   1007                     
1962-03-06 01   16.0    93.0   1007                     
Winds are 10-min average.

Tropical cyclone tracks developed by Michael Bath using data from the Bureau of Meteorology and Google Maps.


[Australian Severe Weather index] [Copyright Notice] [Email Contacts] [Search This Site] [Privacy Policy]
Document: tropical_cyclone_196162_08.htm Updated: 30 May 2013